createdAt,value
2019-03-15T00:00:35.269Z,10.53
2019-03-15T00:03:05.679Z,17.00
2019-03-15T00:05:38.910Z,10.58
2019-03-15T00:08:09.462Z,13.62
2019-03-15T00:10:40.055Z,13.70
2019-03-15T00:13:10.348Z,16.35
2019-03-15T00:15:40.608Z,14.33
2019-03-15T00:18:10.897Z,18.75
2019-03-15T00:20:41.603Z,9.68
2019-03-15T00:23:12.025Z,19.92
2019-03-15T00:25:43.563Z,12.53
2019-03-15T00:28:13.937Z,12.70
2019-03-15T00:30:44.157Z,11.00
2019-03-15T00:33:15.584Z,13.38
2019-03-15T00:35:46.067Z,15.15
2019-03-15T00:38:16.229Z,14.68
2019-03-15T00:40:47.093Z,15.53
2019-03-15T00:43:20.476Z,10.82
2019-03-15T00:45:51.893Z,22.32
2019-03-15T00:48:22.171Z,12.82
2019-03-15T00:50:52.669Z,22.93
2019-03-15T00:53:23.170Z,17.10
2019-03-15T00:55:53.675Z,10.82
2019-03-15T00:58:24.067Z,13.10
2019-03-15T01:00:54.669Z,8.68
2019-03-15T01:03:25.032Z,20.32
2019-03-15T01:05:55.409Z,12.80
2019-03-15T01:08:25.797Z,13.18
2019-03-15T01:10:56.189Z,17.35
2019-03-15T01:13:26.477Z,15.28
2019-03-15T01:15:57.127Z,14.47
2019-03-15T01:18:27.579Z,17.50
2019-03-15T01:20:59.550Z,15.85
2019-03-15T01:23:29.801Z,16.52
2019-03-15T01:26:00.282Z,19.12
2019-03-15T01:28:30.549Z,14.60
2019-03-15T01:31:01.451Z,16.87
2019-03-15T01:33:31.836Z,17.07
2019-03-15T01:36:04.376Z,10.90
2019-03-15T01:38:37.354Z,15.28
2019-03-15T01:41:08.285Z,19.05
2019-03-15T01:43:40.105Z,18.95
2019-03-15T01:46:10.934Z,21.07
2019-03-15T01:48:41.184Z,15.98
2019-03-15T01:51:11.603Z,16.62
2019-03-15T01:53:43.268Z,25.35
2019-03-15T01:56:13.790Z,12.00
2019-03-15T01:58:44.314Z,10.60
2019-03-15T02:01:14.930Z,23.02
2019-03-15T02:03:45.471Z,14.70
2019-03-15T02:06:15.810Z,17.05
2019-03-15T02:08:46.076Z,15.18
2019-03-15T02:11:16.248Z,20.05
2019-03-15T02:13:46.760Z,17.87
2019-03-15T02:16:17.368Z,27.25
2019-03-15T02:18:47.833Z,13.55
2019-03-15T02:21:18.585Z,13.78
2019-03-15T02:23:48.874Z,22.13
2019-03-15T02:26:19.314Z,12.53
2019-03-15T02:28:53.035Z,25.08
2019-03-15T02:31:23.971Z,17.07
2019-03-15T02:33:54.411Z,20.35
2019-03-15T02:36:24.727Z,19.55
2019-03-15T02:38:58.853Z,19.65
2019-03-15T02:41:30.390Z,10.78
2019-03-15T02:44:00.804Z,17.15
2019-03-15T02:46:31.106Z,17.77
2019-03-15T02:49:02.048Z,12.47
2019-03-15T02:51:32.756Z,18.27
2019-03-15T02:54:03.245Z,17.25
2019-03-15T02:56:34.540Z,16.77
2019-03-15T02:59:04.982Z,17.85
2019-03-15T03:01:38.987Z,18.62
2019-03-15T03:04:09.387Z,15.93
2019-03-15T03:06:39.696Z,14.78
2019-03-15T03:09:10.275Z,20.80
2019-03-15T03:11:40.571Z,24.23
2019-03-15T03:14:10.982Z,22.77
2019-03-15T03:16:44.201Z,14.20
2019-03-15T03:19:14.535Z,17.87
2019-03-15T03:21:47.014Z,22.07
2019-03-15T03:24:17.351Z,23.50
2019-03-15T03:26:47.760Z,21.52
2019-03-15T03:29:20.405Z,13.72
2019-03-15T03:31:50.740Z,21.93
2019-03-15T03:34:20.914Z,16.90
2019-03-15T03:36:52.313Z,16.62
2019-03-15T03:39:22.838Z,25.82
2019-03-15T03:41:55.035Z,15.60
2019-03-15T03:44:26.170Z,17.70
2019-03-15T03:46:59.366Z,17.77
2019-03-15T03:49:29.644Z,31.00
2019-03-15T03:52:00.005Z,21.70
2019-03-15T03:54:30.677Z,17.27
2019-03-15T03:57:01.656Z,23.60
2019-03-15T03:59:36.178Z,14.07
2019-03-15T04:02:06.484Z,17.00
2019-03-15T04:04:37.204Z,13.68
2019-03-15T04:07:08.564Z,15.13
2019-03-15T04:09:38.889Z,19.45
2019-03-15T04:12:09.399Z,17.75
2019-03-15T04:14:44.730Z,18.25
2019-03-15T04:17:16.003Z,20.20
2019-03-15T04:19:46.413Z,23.32
2019-03-15T04:22:16.888Z,14.93
2019-03-15T04:24:53.398Z,20.48
2019-03-15T04:27:25.337Z,17.62
2019-03-15T04:29:57.810Z,17.42
2019-03-15T04:32:31.002Z,15.45
2019-03-15T04:35:01.333Z,19.62
2019-03-15T04:37:32.925Z,15.98
2019-03-15T04:40:06.029Z,20.25
2019-03-15T04:42:40.498Z,12.50
2019-03-15T04:45:12.787Z,16.27
2019-03-15T04:47:44.802Z,21.30
2019-03-15T04:50:15.281Z,19.23
2019-03-15T04:52:45.561Z,18.48
2019-03-15T04:55:35.960Z,20.40
2019-03-15T05:03:45.903Z,11.22
2019-03-15T05:06:16.349Z,12.60
2019-03-15T05:08:46.589Z,21.57
2019-03-15T05:11:19.053Z,21.62
2019-03-15T05:13:51.868Z,14.65
2019-03-15T05:16:22.261Z,12.65
2019-03-15T05:18:52.639Z,15.50
2019-03-15T05:21:22.967Z,13.50
2019-03-15T05:23:53.220Z,17.67
2019-03-15T05:26:23.513Z,18.95
2019-03-15T05:28:54.391Z,26.40
2019-03-15T05:31:24.936Z,21.85
2019-03-15T05:33:55.587Z,15.53
2019-03-15T05:36:29.005Z,18.42
2019-03-15T05:38:59.323Z,19.02
2019-03-15T05:41:29.815Z,15.65
2019-03-15T05:44:00.240Z,18.95
2019-03-15T05:46:31.111Z,20.12
2019-03-15T05:49:05.868Z,17.02
2019-03-15T05:51:36.884Z,19.85
2019-03-15T05:54:09.692Z,20.92
2019-03-15T05:56:39.960Z,21.48
2019-03-15T05:59:10.286Z,10.20
2019-03-15T06:01:41.351Z,18.40
2019-03-15T06:04:11.692Z,19.02
2019-03-15T06:06:42.143Z,22.87
2019-03-15T06:09:12.648Z,13.13
2019-03-15T06:11:42.986Z,13.43
2019-03-15T06:14:13.818Z,18.80
2019-03-15T06:16:44.240Z,18.90
2019-03-15T06:19:14.569Z,23.57
2019-03-15T06:21:44.908Z,12.53
2019-03-15T06:24:15.327Z,12.88
2019-03-15T06:26:45.905Z,14.93
2019-03-15T06:29:16.730Z,17.10
2019-03-15T06:31:51.218Z,18.48
2019-03-15T06:34:21.663Z,21.20
2019-03-15T06:36:52.107Z,13.83
2019-03-15T06:39:22.402Z,21.60
2019-03-15T06:41:53.694Z,13.83
2019-03-15T06:44:24.154Z,16.17
2019-03-15T06:46:54.853Z,14.35
2019-03-15T06:49:25.401Z,18.62
2019-03-15T06:51:57.502Z,22.48
2019-03-15T06:54:27.810Z,13.80
2019-03-15T06:56:58.235Z,16.37
2019-03-15T06:59:30.996Z,11.83
2019-03-15T07:02:01.407Z,10.60
2019-03-15T07:04:31.805Z,16.62
2019-03-15T07:07:03.150Z,15.63
2019-03-15T07:09:33.471Z,12.50
2019-03-15T07:12:09.476Z,12.55
2019-03-15T07:14:36.142Z,18.20
2019-03-15T07:17:06.832Z,9.40
2019-03-15T07:19:37.443Z,15.60
2019-03-15T07:22:08.253Z,7.90
2019-03-15T07:24:38.516Z,13.65
2019-03-15T07:27:13.160Z,22.05
2019-03-15T07:29:40.897Z,19.52
2019-03-15T07:32:11.091Z,10.53
2019-03-15T07:34:41.618Z,15.38
2019-03-15T07:37:12.025Z,13.93
2019-03-15T07:39:42.816Z,14.55
2019-03-15T07:42:13.206Z,13.25
2019-03-15T07:44:45.374Z,13.58
2019-03-15T07:47:18.089Z,9.68
2019-03-15T07:49:48.636Z,19.98
2019-03-15T07:52:18.910Z,8.13
2019-03-15T07:54:49.189Z,12.58
2019-03-15T07:57:19.576Z,13.30
2019-03-15T07:59:49.995Z,10.18
2019-03-15T08:02:20.460Z,10.98
2019-03-15T08:04:50.709Z,19.07
2019-03-15T08:07:35.357Z,12.68
2019-03-15T08:09:53.212Z,15.78
2019-03-15T08:12:26.198Z,8.35
2019-03-15T08:14:56.429Z,12.18
2019-03-15T08:17:27.852Z,14.07
2019-03-15T08:19:58.106Z,13.28
2019-03-15T08:22:29.423Z,9.68
2019-03-15T08:24:59.780Z,14.93
2019-03-15T08:27:30.168Z,17.92
2019-03-15T08:30:01.409Z,14.05
2019-03-15T08:32:34.865Z,7.72
2019-03-15T08:35:05.740Z,17.17
2019-03-15T08:37:36.002Z,15.53
2019-03-15T08:40:07.019Z,10.75
2019-03-15T08:42:37.357Z,10.53
2019-03-15T08:45:20.894Z,14.18
2019-03-15T08:47:51.213Z,14.87
2019-03-15T08:50:24.365Z,15.80
2019-03-15T08:52:54.419Z,12.93
2019-03-15T08:55:25.488Z,13.80
2019-03-15T08:57:55.925Z,14.43
2019-03-15T09:00:28.418Z,16.07
2019-03-15T09:02:58.649Z,10.88
2019-03-15T09:05:29.189Z,16.42
2019-03-15T09:08:01.461Z,18.50
2019-03-15T09:10:31.795Z,14.95
2019-03-15T09:13:04.036Z,20.40
2019-03-15T09:15:34.312Z,16.48
2019-03-15T09:18:04.700Z,16.50
2019-03-15T09:20:34.993Z,16.77
2019-03-15T09:23:05.562Z,13.62
2019-03-15T09:25:43.295Z,15.18
2019-03-15T09:28:20.341Z,13.85
2019-03-15T09:30:54.929Z,19.35
2019-03-15T09:33:26.250Z,20.48
2019-03-15T09:36:00.245Z,23.67
2019-03-15T09:38:31.610Z,18.80
2019-03-15T09:41:02.031Z,14.55
2019-03-15T09:43:32.783Z,18.90
2019-03-15T09:46:07.611Z,23.40
2019-03-15T09:48:39.161Z,16.17
2019-03-15T09:51:09.663Z,17.07
2019-03-15T09:53:40.465Z,20.08
2019-03-15T09:56:10.669Z,21.60
2019-03-15T09:58:40.976Z,21.25
2019-03-15T10:01:11.555Z,17.98
2019-03-15T10:03:42.109Z,20.43
2019-03-15T10:06:16.536Z,13.72
2019-03-15T10:08:45.264Z,21.40
2019-03-15T10:11:19.273Z,21.45
2019-03-15T10:13:50.594Z,23.00
2019-03-15T10:16:21.060Z,17.05
2019-03-15T10:18:54.867Z,19.92
2019-03-15T10:21:25.374Z,15.55
2019-03-15T10:23:58.583Z,16.77
2019-03-15T10:26:32.134Z,14.25
2019-03-15T10:29:14.801Z,14.33
2019-03-15T10:31:35.914Z,11.95
2019-03-15T10:34:06.853Z,19.37
2019-03-15T10:36:37.842Z,18.15
2019-03-15T10:39:08.616Z,19.00
2019-03-15T10:41:39.429Z,19.15
2019-03-15T10:44:10.438Z,16.97
2019-03-15T10:46:41.181Z,15.50
2019-03-15T10:49:16.094Z,19.37
2019-03-15T10:51:46.496Z,18.20
2019-03-15T10:54:17.854Z,11.57
2019-03-15T10:56:49.639Z,19.12
2019-03-15T10:59:19.924Z,16.60
2019-03-15T11:01:51.342Z,12.15
2019-03-15T11:04:22.206Z,23.32
2019-03-15T11:06:52.484Z,24.00
2019-03-15T11:09:23.911Z,19.77
2019-03-15T11:11:54.267Z,44.63
2019-03-15T11:14:24.468Z,16.93
2019-03-15T11:16:54.672Z,14.10
2019-03-15T11:19:25.060Z,13.38
2019-03-15T11:21:55.242Z,9.50
2019-03-15T11:24:25.540Z,15.00
2019-03-15T11:26:57.251Z,10.13
2019-03-15T11:29:27.569Z,16.30
2019-03-15T11:31:57.931Z,6.22
2019-03-15T11:34:28.724Z,6.20
2019-03-15T11:36:59.097Z,8.23
2019-03-15T11:39:29.422Z,4.58
2019-03-15T11:41:59.740Z,2.65
2019-03-15T11:44:30.007Z,6.35
2019-03-15T11:47:00.615Z,4.00
2019-03-15T11:49:30.896Z,3.45
2019-03-15T11:52:01.261Z,3.37
2019-03-15T11:54:32.438Z,3.10
2019-03-15T11:57:13.837Z,2.75
2019-03-15T11:59:44.545Z,1.50
2019-03-15T12:02:21.965Z,3.02
2019-03-15T12:04:53.443Z,3.02
2019-03-15T12:07:25.948Z,0.85
2019-03-15T12:10:00.875Z,2.37
2019-03-15T12:12:33.018Z,1.22
2019-03-15T12:15:07.039Z,2.47
2019-03-15T12:17:40.623Z,1.62
2019-03-15T12:20:15.359Z,0.80
2019-03-15T12:22:51.286Z,0.78
2019-03-15T12:25:31.294Z,0.68
2019-03-15T12:28:03.949Z,0.98
2019-03-15T12:30:34.840Z,1.75
2019-03-15T12:33:11.291Z,0.90
2019-03-15T12:35:41.743Z,1.07
2019-03-15T12:38:17.918Z,1.77
2019-03-15T12:41:04.816Z,0.37
2019-03-15T12:43:36.201Z,1.05
2019-03-15T12:46:08.729Z,0.65
2019-03-15T12:48:39.891Z,0.88
2019-03-15T12:51:10.591Z,0.00
2019-03-15T12:53:42.925Z,0.98
2019-03-15T12:56:14.841Z,1.47
2019-03-15T12:58:45.418Z,0.65
2019-03-15T13:01:29.967Z,1.90
2019-03-15T13:04:01.895Z,0.30
2019-03-15T13:06:33.985Z,5.78
2019-03-15T13:09:08.791Z,1.27
2019-03-15T13:11:42.917Z,1.42
2019-03-15T13:14:14.103Z,3.02
2019-03-15T13:16:54.043Z,1.05
2019-03-15T13:19:27.837Z,1.60
2019-03-15T13:22:01.499Z,3.60
2019-03-15T13:24:38.705Z,1.20
2019-03-15T13:27:10.772Z,5.58
2019-03-15T13:29:44.773Z,1.47
2019-03-15T13:32:15.939Z,3.77
2019-03-15T13:34:48.138Z,2.70
2019-03-15T13:37:25.433Z,3.42
2019-03-15T13:39:56.239Z,9.53
2019-03-15T13:42:29.326Z,2.30
2019-03-15T13:45:03.340Z,2.42
2019-03-15T13:47:36.315Z,0.88
2019-03-15T13:50:08.486Z,1.65
2019-03-15T13:52:41.341Z,4.72
2019-03-15T13:55:12.145Z,3.05
2019-03-15T13:57:42.554Z,1.57
2019-03-15T14:00:15.385Z,3.02
2019-03-15T14:02:45.866Z,2.08
2019-03-15T14:05:16.292Z,2.37
2019-03-15T14:07:46.791Z,2.70
2019-03-15T14:10:17.418Z,4.33
2019-03-15T14:12:50.176Z,5.47
2019-03-15T14:15:24.133Z,2.12
2019-03-15T14:17:57.803Z,5.67
2019-03-15T14:20:28.233Z,1.55
2019-03-15T14:23:02.666Z,5.00
2019-03-15T14:25:34.239Z,5.00
2019-03-15T14:28:13.230Z,4.47
2019-03-15T14:30:43.489Z,6.42
2019-03-15T14:33:13.970Z,4.35
2019-03-15T14:35:47.560Z,6.30
2019-03-15T14:38:19.946Z,1.70
2019-03-15T14:40:53.649Z,4.37
2019-03-15T14:43:31.093Z,1.42
2019-03-15T14:46:01.912Z,1.55
2019-03-15T14:48:37.887Z,3.67
2019-03-15T14:51:11.668Z,1.45
2019-03-15T14:53:42.633Z,0.68
2019-03-15T14:56:18.072Z,2.60
2019-03-15T14:58:57.111Z,3.75
2019-03-15T15:01:29.209Z,3.83
2019-03-15T15:04:00.434Z,2.92
2019-03-15T15:06:31.441Z,3.30
2019-03-15T15:09:02.618Z,1.60
2019-03-15T15:11:34.408Z,1.57
2019-03-15T15:14:05.470Z,5.03
2019-03-15T15:16:36.261Z,3.30
2019-03-15T15:19:07.255Z,2.02
2019-03-15T15:21:37.710Z,3.70
2019-03-15T15:24:12.219Z,2.30
2019-03-15T15:26:44.280Z,3.47
2019-03-15T15:29:17.753Z,2.87
2019-03-15T15:31:48.425Z,3.37
2019-03-15T15:34:18.763Z,3.70
2019-03-15T15:36:49.613Z,2.47
2019-03-15T15:39:19.897Z,4.95
2019-03-15T15:41:53.353Z,2.60
2019-03-15T15:44:27.130Z,5.83
2019-03-15T15:47:02.173Z,4.85
2019-03-15T15:49:32.825Z,3.12
2019-03-15T15:52:06.040Z,2.62
2019-03-15T15:54:36.278Z,4.40
2019-03-15T15:57:07.041Z,4.85
2019-03-15T15:59:37.525Z,6.58
2019-03-15T16:02:13.117Z,2.62
2019-03-15T16:04:46.917Z,4.95
2019-03-15T16:07:17.446Z,3.80
2019-03-15T16:09:47.923Z,4.60
2019-03-15T16:12:18.194Z,6.22
2019-03-15T16:14:51.452Z,2.50
2019-03-15T16:17:25.168Z,4.08
2019-03-15T16:20:07.123Z,3.00
2019-03-15T16:22:37.793Z,3.10
2019-03-15T16:25:08.115Z,7.28
2019-03-15T16:27:38.727Z,2.02
2019-03-15T16:30:15.996Z,2.67
2019-03-15T16:32:46.545Z,4.22
2019-03-15T16:35:17.265Z,3.45
2019-03-15T16:37:48.663Z,2.70
2019-03-15T16:40:19.303Z,2.30
2019-03-15T16:42:52.641Z,7.85
2019-03-15T16:45:23.222Z,4.40
2019-03-15T16:47:53.971Z,4.33
2019-03-15T16:50:24.518Z,1.45
2019-03-15T16:52:54.961Z,5.42
2019-03-15T16:55:25.531Z,2.42
2019-03-15T16:57:56.149Z,1.60
2019-03-15T17:00:26.617Z,3.08
2019-03-15T17:02:58.589Z,4.25
2019-03-15T17:05:28.832Z,3.47
2019-03-15T17:07:59.485Z,2.83
2019-03-15T17:10:31.619Z,4.55
2019-03-15T17:13:02.180Z,4.25
2019-03-15T17:15:32.599Z,3.20
2019-03-15T17:18:03.145Z,4.92
2019-03-15T17:20:33.531Z,4.28
2019-03-15T17:23:03.955Z,6.30
2019-03-15T17:25:34.191Z,5.08
2019-03-15T17:28:04.419Z,3.65
2019-03-15T17:30:35.686Z,1.20
2019-03-15T17:33:06.406Z,4.37
2019-03-15T17:35:38.042Z,3.52
2019-03-15T17:38:11.222Z,2.42
2019-03-15T17:40:44.751Z,2.95
2019-03-15T17:43:19.577Z,4.70
2019-03-15T17:45:49.838Z,2.70
2019-03-15T17:48:20.990Z,1.95
2019-03-15T17:50:51.711Z,3.60
2019-03-15T17:53:24.419Z,2.70
2019-03-15T17:55:57.925Z,2.58
2019-03-15T17:58:31.862Z,3.00
2019-03-15T18:01:02.160Z,4.17
2019-03-15T18:03:32.718Z,2.65
2019-03-15T18:06:02.925Z,4.12
2019-03-15T18:08:36.152Z,4.55
2019-03-15T18:11:06.591Z,2.80
2019-03-15T18:13:40.440Z,2.58
2019-03-15T18:16:10.693Z,5.83
2019-03-15T18:18:40.965Z,3.75
2019-03-15T18:21:12.134Z,4.53
2019-03-15T18:23:42.562Z,2.83
2019-03-15T18:26:15.445Z,2.95
2019-03-15T18:28:48.505Z,5.70
2019-03-15T18:31:18.658Z,1.72
2019-03-15T18:33:48.849Z,4.45
2019-03-15T18:36:19.217Z,3.80
2019-03-15T18:38:53.397Z,2.98
2019-03-15T18:41:23.728Z,3.80
2019-03-15T18:43:55.497Z,2.42
2019-03-15T18:46:25.744Z,3.37
2019-03-15T18:48:55.980Z,3.80
2019-03-15T18:51:26.348Z,4.80
2019-03-15T18:53:58.572Z,5.95
2019-03-15T18:56:29.415Z,4.25
2019-03-15T18:58:59.729Z,4.37
2019-03-15T19:01:29.964Z,2.10
2019-03-15T19:04:00.467Z,4.90
2019-03-15T19:06:30.669Z,4.62
2019-03-15T19:09:01.667Z,8.23
2019-03-15T19:11:33.601Z,11.53
2019-03-15T19:14:04.151Z,3.58
2019-03-15T19:16:34.950Z,8.50
2019-03-15T19:19:05.229Z,5.50
2019-03-15T19:21:35.554Z,4.10
2019-03-15T19:24:05.721Z,10.93
2019-03-15T19:26:35.863Z,5.72
2019-03-15T19:29:06.176Z,7.67
2019-03-15T19:31:36.501Z,5.33
2019-03-15T19:34:07.931Z,6.00
2019-03-15T19:36:39.385Z,8.58
2019-03-15T19:39:09.928Z,14.00
2019-03-15T19:41:43.238Z,5.25
2019-03-15T19:44:16.667Z,7.87
2019-03-15T19:46:47.117Z,7.47
2019-03-15T19:49:17.451Z,7.92
2019-03-15T19:51:47.970Z,3.35
2019-03-15T19:54:19.374Z,5.72
2019-03-15T19:56:49.559Z,4.97
2019-03-15T19:59:19.950Z,7.25
2019-03-15T20:01:50.253Z,7.45
2019-03-15T20:04:20.474Z,3.40
2019-03-15T20:06:52.873Z,5.60
2019-03-15T20:09:23.190Z,5.87
2019-03-15T20:11:53.322Z,6.95
2019-03-15T20:14:23.486Z,4.97
2019-03-15T20:16:53.755Z,4.22
2019-03-15T20:19:24.053Z,10.13
2019-03-15T20:22:02.919Z,5.37
2019-03-15T20:24:36.696Z,4.33
2019-03-15T20:27:06.333Z,6.22
2019-03-15T20:29:37.573Z,7.25
2019-03-15T20:32:08.355Z,9.23
2019-03-15T20:34:40.424Z,7.95
2019-03-15T20:37:12.345Z,8.20
2019-03-15T20:39:42.574Z,10.05
2019-03-15T20:42:12.772Z,9.23
2019-03-15T20:44:43.721Z,7.12
2019-03-15T20:47:15.610Z,5.90
2019-03-15T20:49:49.470Z,9.43
2019-03-15T20:52:21.428Z,3.72
2019-03-15T20:54:51.878Z,11.10
2019-03-15T20:57:22.232Z,7.50
2019-03-15T20:59:52.559Z,9.68
2019-03-15T21:02:25.452Z,4.12
2019-03-15T21:04:55.878Z,5.53
2019-03-15T21:07:26.039Z,8.90
2019-03-15T21:09:56.341Z,15.78
2019-03-15T21:12:26.460Z,10.50
2019-03-15T21:14:56.657Z,5.53
2019-03-15T21:17:26.935Z,9.43
2019-03-15T21:20:01.570Z,10.03
2019-03-15T21:22:30.424Z,8.75
2019-03-15T21:25:00.650Z,9.63
2019-03-15T21:27:30.970Z,12.70
2019-03-15T21:30:01.208Z,6.80
2019-03-15T21:32:31.587Z,8.98
2019-03-15T21:35:03.549Z,7.45
2019-03-15T21:37:34.834Z,12.53
2019-03-15T21:40:05.159Z,8.70
2019-03-15T21:42:39.146Z,17.45
2019-03-15T21:45:10.368Z,16.77
2019-03-15T21:47:40.585Z,9.65
2019-03-15T21:50:12.447Z,8.40
2019-03-15T21:52:42.640Z,3.60
2019-03-15T21:55:12.914Z,11.33
2019-03-15T21:57:43.110Z,10.40
2019-03-15T22:00:14.230Z,11.78
2019-03-15T22:02:48.845Z,10.32
2019-03-15T22:05:19.881Z,9.05
2019-03-15T22:07:49.990Z,19.17
2019-03-15T22:10:20.169Z,9.13
2019-03-15T22:12:51.719Z,12.60
2019-03-15T22:15:24.416Z,11.38
2019-03-15T22:17:54.597Z,9.18
2019-03-15T22:20:29.222Z,7.50
2019-03-15T22:22:59.305Z,12.18
2019-03-15T22:25:30.188Z,12.18
2019-03-15T22:28:01.076Z,7.97
2019-03-15T22:30:34.003Z,9.43
2019-03-15T22:33:04.284Z,7.05
2019-03-15T22:35:36.633Z,15.40
2019-03-15T22:38:07.237Z,7.67
2019-03-15T22:40:37.609Z,7.22
2019-03-15T22:43:07.985Z,15.95
2019-03-15T22:45:38.135Z,9.03
2019-03-15T22:48:08.278Z,9.50
2019-03-15T22:50:41.939Z,11.78
2019-03-15T22:53:12.077Z,7.53
2019-03-15T22:55:42.432Z,11.00
2019-03-15T22:58:12.674Z,7.67
2019-03-15T23:00:43.333Z,14.23
2019-03-15T23:03:15.252Z,10.03
2019-03-15T23:05:47.787Z,8.38
2019-03-15T23:08:17.692Z,10.70
2019-03-15T23:10:50.374Z,14.33
2019-03-15T23:13:20.607Z,8.63
2019-03-15T23:15:50.784Z,9.63
2019-03-15T23:18:20.988Z,9.65
2019-03-15T23:20:52.086Z,6.30
2019-03-15T23:23:24.403Z,12.40
2019-03-15T23:25:54.577Z,9.18
2019-03-15T23:28:24.898Z,11.65
2019-03-15T23:30:55.187Z,7.75
2019-03-15T23:33:25.476Z,13.62
2019-03-15T23:35:58.565Z,7.78
2019-03-15T23:38:29.152Z,13.20
2019-03-15T23:40:59.685Z,8.68
2019-03-15T23:43:30.067Z,10.95
2019-03-15T23:46:00.471Z,9.78
2019-03-15T23:48:30.756Z,5.30
2019-03-15T23:51:01.248Z,4.65
2019-03-15T23:53:31.556Z,9.00
2019-03-15T23:56:02.025Z,6.97
2019-03-15T23:58:32.310Z,9.98
